sensor_id;sensor_type;location;lat;lon;timestamp;P1;durP1;ratioP1;P2;durP2;ratioP2
6053;SDS011;3055;50.886;14.814;2023-02-01T00:02:25;3.33;;;2.40;;
6053;SDS011;3055;50.886;14.814;2023-02-01T00:04:52;7.03;;;3.07;;
6053;SDS011;3055;50.886;14.814;2023-02-01T00:07:19;5.33;;;2.67;;
6053;SDS011;3055;50.886;14.814;2023-02-01T00:09:46;7.97;;;3.00;;
6053;SDS011;3055;50.886;14.814;2023-02-01T00:12:13;5.60;;;2.90;;
6053;SDS011;3055;50.886;14.814;2023-02-01T00:14:42;3.60;;;2.60;;
6053;SDS011;3055;50.886;14.814;2023-02-01T00:17:09;5.47;;;2.70;;
6053;SDS011;3055;50.886;14.814;2023-02-01T00:19:36;8.07;;;2.93;;
6053;SDS011;3055;50.886;14.814;2023-02-01T00:22:03;6.43;;;2.60;;
6053;SDS011;3055;50.886;14.814;2023-02-01T00:24:30;7.43;;;2.97;;
6053;SDS011;3055;50.886;14.814;2023-02-01T00:26:57;6.43;;;2.77;;
6053;SDS011;3055;50.886;14.814;2023-02-01T00:29:24;7.93;;;3.57;;
6053;SDS011;3055;50.886;14.814;2023-02-01T00:31:52;4.00;;;2.67;;
6053;SDS011;3055;50.886;14.814;2023-02-01T00:34:20;5.77;;;2.70;;
6053;SDS011;3055;50.886;14.814;2023-02-01T00:36:47;6.50;;;2.97;;
6053;SDS011;3055;50.886;14.814;2023-02-01T00:39:14;8.53;;;3.20;;
6053;SDS011;3055;50.886;14.814;2023-02-01T00:41:42;6.80;;;3.17;;
6053;SDS011;3055;50.886;14.814;2023-02-01T00:44:09;3.53;;;2.90;;
6053;SDS011;3055;50.886;14.814;2023-02-01T00:46:36;6.77;;;3.00;;
6053;SDS011;3055;50.886;14.814;2023-02-01T00:49:05;5.57;;;3.30;;
6053;SDS011;3055;50.886;14.814;2023-02-01T00:51:34;11.97;;;3.10;;
6053;SDS011;3055;50.886;14.814;2023-02-01T00:54:01;6.83;;;3.00;;
6053;SDS011;3055;50.886;14.814;2023-02-01T00:56:29;6.40;;;3.23;;
6053;SDS011;3055;50.886;14.814;2023-02-01T00:58:56;5.60;;;2.73;;
6053;SDS011;3055;50.886;14.814;2023-02-01T01:01:24;5.60;;;3.50;;
6053;SDS011;3055;50.886;14.814;2023-02-01T01:03:53;3.87;;;2.80;;
6053;SDS011;3055;50.886;14.814;2023-02-01T01:06:24;9.37;;;3.40;;
6053;SDS011;3055;50.886;14.814;2023-02-01T01:08:52;9.17;;;3.10;;
6053;SDS011;3055;50.886;14.814;2023-02-01T01:11:21;7.90;;;3.27;;
6053;SDS011;3055;50.886;14.814;2023-02-01T01:13:50;4.73;;;2.90;;
6053;SDS011;3055;50.886;14.814;2023-02-01T01:16:18;4.90;;;3.30;;
6053;SDS011;3055;50.886;14.814;2023-02-01T01:18:46;6.67;;;3.07;;
6053;SDS011;3055;50.886;14.814;2023-02-01T01:21:14;10.37;;;3.10;;
6053;SDS011;3055;50.886;14.814;2023-02-01T01:23:43;5.87;;;2.90;;
6053;SDS011;3055;50.886;14.814;2023-02-01T01:26:12;7.07;;;3.33;;
6053;SDS011;3055;50.886;14.814;2023-02-01T01:28:41;4.77;;;2.90;;
6053;SDS011;3055;50.886;14.814;2023-02-01T01:31:08;8.90;;;3.13;;
6053;SDS011;3055;50.886;14.814;2023-02-01T01:33:36;8.40;;;3.83;;
6053;SDS011;3055;50.886;14.814;2023-02-01T01:36:04;5.97;;;3.27;;
6053;SDS011;3055;50.886;14.814;2023-02-01T01:38:31;7.10;;;2.90;;
6053;SDS011;3055;50.886;14.814;2023-02-01T01:40:59;5.03;;;3.30;;
6053;SDS011;3055;50.886;14.814;2023-02-01T01:46:19;7.97;;;3.30;;
6053;SDS011;3055;50.886;14.814;2023-02-01T01:48:48;7.97;;;3.37;;
6053;SDS011;3055;50.886;14.814;2023-02-01T01:51:19;9.27;;;2.93;;
6053;SDS011;3055;50.886;14.814;2023-02-01T01:53:51;8.07;;;3.17;;
6053;SDS011;3055;50.886;14.814;2023-02-01T01:56:26;4.97;;;2.40;;
6053;SDS011;3055;50.886;14.814;2023-02-01T01:58:54;2.77;;;2.57;;
6053;SDS011;3055;50.886;14.814;2023-02-01T02:01:22;7.80;;;2.87;;
6053;SDS011;3055;50.886;14.814;2023-02-01T02:03:49;5.57;;;2.77;;
6053;SDS011;3055;50.886;14.814;2023-02-01T02:06:20;9.00;;;2.90;;
6053;SDS011;3055;50.886;14.814;2023-02-01T02:08:55;4.07;;;2.77;;
6053;SDS011;3055;50.886;14.814;2023-02-01T02:11:22;6.03;;;2.80;;
6053;SDS011;3055;50.886;14.814;2023-02-01T02:13:52;5.07;;;2.77;;
6053;SDS011;3055;50.886;14.814;2023-02-01T02:16:24;6.83;;;2.80;;
6053;SDS011;3055;50.886;14.814;2023-02-01T02:25:25;8.83;;;3.07;;
6053;SDS011;3055;50.886;14.814;2023-02-01T02:28:12;8.23;;;3.10;;
6053;SDS011;3055;50.886;14.814;2023-02-01T02:31:08;11.00;;;2.87;;
6053;SDS011;3055;50.886;14.814;2023-02-01T02:33:59;9.07;;;3.33;;
6053;SDS011;3055;50.886;14.814;2023-02-01T02:36:38;7.33;;;2.93;;
6053;SDS011;3055;50.886;14.814;2023-02-01T02:39:16;7.33;;;2.73;;
6053;SDS011;3055;50.886;14.814;2023-02-01T02:41:51;6.73;;;3.13;;
6053;SDS011;3055;50.886;14.814;2023-02-01T02:44:42;4.57;;;2.63;;
6053;SDS011;3055;50.886;14.814;2023-02-01T02:47:33;7.10;;;2.60;;
6053;SDS011;3055;50.886;14.814;2023-02-01T02:50:07;4.50;;;2.50;;
6053;SDS011;3055;50.886;14.814;2023-02-01T02:52:57;4.83;;;2.60;;
6053;SDS011;3055;50.886;14.814;2023-02-01T02:55:46;5.27;;;2.60;;
6053;SDS011;3055;50.886;14.814;2023-02-01T02:58:16;4.87;;;2.90;;
6053;SDS011;3055;50.886;14.814;2023-02-01T03:01:00;9.93;;;2.83;;
6053;SDS011;3055;50.886;14.814;2023-02-01T03:03:46;9.73;;;3.10;;
6053;SDS011;3055;50.886;14.814;2023-02-01T03:06:37;5.83;;;2.90;;
6053;SDS011;3055;50.886;14.814;2023-02-01T03:09:06;5.70;;;2.50;;
6053;SDS011;3055;50.886;14.814;2023-02-01T03:11:39;5.00;;;2.67;;
6053;SDS011;3055;50.886;14.814;2023-02-01T03:14:26;8.00;;;3.77;;
6053;SDS011;3055;50.886;14.814;2023-02-01T03:16:57;8.47;;;2.83;;
6053;SDS011;3055;50.886;14.814;2023-02-01T03:19:29;6.40;;;3.33;;
6053;SDS011;3055;50.886;14.814;2023-02-01T03:22:02;11.00;;;3.17;;
6053;SDS011;3055;50.886;14.814;2023-02-01T03:24:32;3.27;;;2.40;;
6053;SDS011;3055;50.886;14.814;2023-02-01T03:27:05;6.43;;;3.20;;
6053;SDS011;3055;50.886;14.814;2023-02-01T03:29:40;6.07;;;2.50;;
6053;SDS011;3055;50.886;14.814;2023-02-01T03:32:11;8.87;;;2.77;;
6053;SDS011;3055;50.886;14.814;2023-02-01T03:34:38;6.20;;;2.77;;
6053;SDS011;3055;50.886;14.814;2023-02-01T03:37:08;5.47;;;2.67;;
6053;SDS011;3055;50.886;14.814;2023-02-01T03:39:38;7.23;;;2.60;;
6053;SDS011;3055;50.886;14.814;2023-02-01T03:42:09;8.80;;;2.63;;
6053;SDS011;3055;50.886;14.814;2023-02-01T03:44:40;6.03;;;3.20;;
6053;SDS011;3055;50.886;14.814;2023-02-01T03:47:13;5.27;;;2.63;;
6053;SDS011;3055;50.886;14.814;2023-02-01T03:49:45;8.63;;;2.47;;
6053;SDS011;3055;50.886;14.814;2023-02-01T03:52:18;6.67;;;2.50;;
6053;SDS011;3055;50.886;14.814;2023-02-01T03:54:48;6.03;;;2.50;;
6053;SDS011;3055;50.886;14.814;2023-02-01T03:57:17;7.83;;;2.90;;
6053;SDS011;3055;50.886;14.814;2023-02-01T03:59:49;10.90;;;3.10;;
6053;SDS011;3055;50.886;14.814;2023-02-01T04:02:16;6.47;;;2.70;;
6053;SDS011;3055;50.886;14.814;2023-02-01T04:04:43;7.97;;;2.93;;
6053;SDS011;3055;50.886;14.814;2023-02-01T04:07:11;6.00;;;2.40;;
6053;SDS011;3055;50.886;14.814;2023-02-01T04:09:39;8.07;;;2.97;;
6053;SDS011;3055;50.886;14.814;2023-02-01T04:12:07;7.93;;;2.83;;
6053;SDS011;3055;50.886;14.814;2023-02-01T04:14:34;5.70;;;3.10;;
6053;SDS011;3055;50.886;14.814;2023-02-01T04:17:01;9.37;;;3.93;;
6053;SDS011;3055;50.886;14.814;2023-02-01T04:19:28;5.67;;;3.07;;
6053;SDS011;3055;50.886;14.814;2023-02-01T04:21:55;8.37;;;3.27;;
6053;SDS011;3055;50.886;14.814;2023-02-01T04:24:22;7.93;;;3.40;;
6053;SDS011;3055;50.886;14.814;2023-02-01T04:26:50;9.10;;;3.13;;
6053;SDS011;3055;50.886;14.814;2023-02-01T04:29:17;7.70;;;3.10;;
6053;SDS011;3055;50.886;14.814;2023-02-01T04:31:44;11.90;;;3.47;;
6053;SDS011;3055;50.886;14.814;2023-02-01T04:34:11;5.87;;;3.10;;
6053;SDS011;3055;50.886;14.814;2023-02-01T04:36:38;11.20;;;3.20;;
6053;SDS011;3055;50.886;14.814;2023-02-01T04:39:05;10.67;;;3.90;;
6053;SDS011;3055;50.886;14.814;2023-02-01T04:41:35;6.87;;;2.97;;
6053;SDS011;3055;50.886;14.814;2023-02-01T04:44:04;9.67;;;3.03;;
6053;SDS011;3055;50.886;14.814;2023-02-01T04:46:31;10.10;;;3.27;;
6053;SDS011;3055;50.886;14.814;2023-02-01T04:48:58;7.00;;;3.33;;
6053;SDS011;3055;50.886;14.814;2023-02-01T04:51:25;8.10;;;4.10;;
6053;SDS011;3055;50.886;14.814;2023-02-01T04:53:52;7.60;;;3.53;;
6053;SDS011;3055;50.886;14.814;2023-02-01T04:56:20;9.97;;;2.87;;
6053;SDS011;3055;50.886;14.814;2023-02-01T04:58:47;5.60;;;2.63;;
6053;SDS011;3055;50.886;14.814;2023-02-01T05:01:16;9.53;;;3.07;;
6053;SDS011;3055;50.886;14.814;2023-02-01T05:03:43;8.67;;;3.37;;
6053;SDS011;3055;50.886;14.814;2023-02-01T05:06:10;9.40;;;3.10;;
6053;SDS011;3055;50.886;14.814;2023-02-01T05:08:37;7.47;;;3.00;;
6053;SDS011;3055;50.886;14.814;2023-02-01T05:11:04;5.73;;;2.63;;
6053;SDS011;3055;50.886;14.814;2023-02-01T05:13:31;13.70;;;3.27;;
6053;SDS011;3055;50.886;14.814;2023-02-01T05:16:16;10.90;;;3.53;;
6053;SDS011;3055;50.886;14.814;2023-02-01T05:18:43;7.40;;;3.30;;
6053;SDS011;3055;50.886;14.814;2023-02-01T05:21:11;7.70;;;2.83;;
6053;SDS011;3055;50.886;14.814;2023-02-01T05:23:38;8.80;;;3.30;;
6053;SDS011;3055;50.886;14.814;2023-02-01T05:26:18;7.03;;;3.10;;
6053;SDS011;3055;50.886;14.814;2023-02-01T05:28:45;7.60;;;2.87;;
6053;SDS011;3055;50.886;14.814;2023-02-01T05:31:13;4.70;;;2.50;;
6053;SDS011;3055;50.886;14.814;2023-02-01T05:33:41;10.03;;;2.90;;
6053;SDS011;3055;50.886;14.814;2023-02-01T05:36:08;7.83;;;2.83;;
6053;SDS011;3055;50.886;14.814;2023-02-01T05:38:35;10.67;;;3.00;;
6053;SDS011;3055;50.886;14.814;2023-02-01T05:41:02;5.37;;;3.07;;
6053;SDS011;3055;50.886;14.814;2023-02-01T05:43:30;6.43;;;2.73;;
6053;SDS011;3055;50.886;14.814;2023-02-01T05:45:57;6.77;;;3.27;;
6053;SDS011;3055;50.886;14.814;2023-02-01T05:48:24;9.00;;;2.97;;
6053;SDS011;3055;50.886;14.814;2023-02-01T05:50:52;8.43;;;3.50;;
6053;SDS011;3055;50.886;14.814;2023-02-01T05:53:19;7.60;;;3.37;;
6053;SDS011;3055;50.886;14.814;2023-02-01T05:55:46;9.80;;;3.50;;
6053;SDS011;3055;50.886;14.814;2023-02-01T05:58:13;6.47;;;3.30;;
6053;SDS011;3055;50.886;14.814;2023-02-01T06:00:40;7.03;;;2.90;;
6053;SDS011;3055;50.886;14.814;2023-02-01T06:03:07;8.63;;;3.53;;
6053;SDS011;3055;50.886;14.814;2023-02-01T06:05:34;6.60;;;3.17;;
6053;SDS011;3055;50.886;14.814;2023-02-01T06:08:03;8.73;;;3.43;;
6053;SDS011;3055;50.886;14.814;2023-02-01T06:10:32;7.67;;;2.70;;
6053;SDS011;3055;50.886;14.814;2023-02-01T06:12:59;6.67;;;2.90;;
6053;SDS011;3055;50.886;14.814;2023-02-01T06:15:28;8.10;;;3.50;;
6053;SDS011;3055;50.886;14.814;2023-02-01T06:17:56;8.50;;;3.40;;
6053;SDS011;3055;50.886;14.814;2023-02-01T06:20:23;7.10;;;3.50;;
6053;SDS011;3055;50.886;14.814;2023-02-01T06:22:50;10.40;;;2.60;;
6053;SDS011;3055;50.886;14.814;2023-02-01T06:25:20;5.63;;;2.50;;
6053;SDS011;3055;50.886;14.814;2023-02-01T06:27:47;9.63;;;2.93;;
6053;SDS011;3055;50.886;14.814;2023-02-01T06:30:14;6.80;;;3.23;;
6053;SDS011;3055;50.886;14.814;2023-02-01T06:32:41;5.23;;;2.77;;
6053;SDS011;3055;50.886;14.814;2023-02-01T06:35:09;4.80;;;2.87;;
6053;SDS011;3055;50.886;14.814;2023-02-01T06:37:41;6.57;;;2.50;;
6053;SDS011;3055;50.886;14.814;2023-02-01T06:40:09;6.57;;;2.53;;
6053;SDS011;3055;50.886;14.814;2023-02-01T06:42:38;8.43;;;3.00;;
6053;SDS011;3055;50.886;14.814;2023-02-01T06:45:05;10.27;;;3.20;;
6053;SDS011;3055;50.886;14.814;2023-02-01T06:47:33;12.37;;;3.40;;
6053;SDS011;3055;50.886;14.814;2023-02-01T06:50:00;9.70;;;2.90;;
6053;SDS011;3055;50.886;14.814;2023-02-01T06:52:27;8.53;;;3.03;;
6053;SDS011;3055;50.886;14.814;2023-02-01T06:54:54;8.30;;;3.10;;
6053;SDS011;3055;50.886;14.814;2023-02-01T06:57:21;4.33;;;2.60;;
6053;SDS011;3055;50.886;14.814;2023-02-01T06:59:50;8.00;;;2.70;;
6053;SDS011;3055;50.886;14.814;2023-02-01T07:02:17;9.73;;;2.93;;
6053;SDS011;3055;50.886;14.814;2023-02-01T07:04:45;7.43;;;2.80;;
6053;SDS011;3055;50.886;14.814;2023-02-01T07:07:13;6.87;;;2.90;;
6053;SDS011;3055;50.886;14.814;2023-02-01T07:09:40;6.47;;;2.90;;
6053;SDS011;3055;50.886;14.814;2023-02-01T07:12:07;6.40;;;3.07;;
6053;SDS011;3055;50.886;14.814;2023-02-01T07:14:34;8.83;;;3.53;;
6053;SDS011;3055;50.886;14.814;2023-02-01T07:17:03;5.37;;;3.27;;
6053;SDS011;3055;50.886;14.814;2023-02-01T07:19:30;11.67;;;4.50;;
6053;SDS011;3055;50.886;14.814;2023-02-01T07:21:57;11.20;;;4.03;;
6053;SDS011;3055;50.886;14.814;2023-02-01T07:24:24;8.33;;;3.53;;
6053;SDS011;3055;50.886;14.814;2023-02-01T07:26:51;8.40;;;3.20;;
6053;SDS011;3055;50.886;14.814;2023-02-01T07:29:18;9.03;;;2.93;;
6053;SDS011;3055;50.886;14.814;2023-02-01T07:31:45;12.23;;;3.47;;
6053;SDS011;3055;50.886;14.814;2023-02-01T07:34:14;6.93;;;2.80;;
6053;SDS011;3055;50.886;14.814;2023-02-01T07:36:41;11.87;;;3.80;;
6053;SDS011;3055;50.886;14.814;2023-02-01T07:39:08;4.73;;;2.87;;
6053;SDS011;3055;50.886;14.814;2023-02-01T07:41:35;7.47;;;4.00;;
6053;SDS011;3055;50.886;14.814;2023-02-01T07:44:02;11.83;;;3.30;;
6053;SDS011;3055;50.886;14.814;2023-02-01T07:46:29;12.07;;;3.50;;
6053;SDS011;3055;50.886;14.814;2023-02-01T07:48:56;6.87;;;3.20;;
6053;SDS011;3055;50.886;14.814;2023-02-01T07:51:24;6.00;;;3.20;;
6053;SDS011;3055;50.886;14.814;2023-02-01T07:53:52;6.17;;;3.33;;
6053;SDS011;3055;50.886;14.814;2023-02-01T07:56:19;8.63;;;3.40;;
6053;SDS011;3055;50.886;14.814;2023-02-01T07:58:53;9.90;;;3.53;;
6053;SDS011;3055;50.886;14.814;2023-02-01T08:01:24;7.30;;;3.23;;
6053;SDS011;3055;50.886;14.814;2023-02-01T08:04:00;11.03;;;3.33;;
6053;SDS011;3055;50.886;14.814;2023-02-01T08:06:31;6.67;;;3.40;;
6053;SDS011;3055;50.886;14.814;2023-02-01T08:09:00;5.30;;;3.00;;
6053;SDS011;3055;50.886;14.814;2023-02-01T08:11:27;7.13;;;3.00;;
6053;SDS011;3055;50.886;14.814;2023-02-01T08:13:54;8.57;;;3.67;;
6053;SDS011;3055;50.886;14.814;2023-02-01T08:16:22;8.33;;;3.50;;
6053;SDS011;3055;50.886;14.814;2023-02-01T08:18:50;7.97;;;3.73;;
6053;SDS011;3055;50.886;14.814;2023-02-01T08:21:18;7.63;;;3.70;;
6053;SDS011;3055;50.886;14.814;2023-02-01T08:23:48;11.13;;;3.47;;
6053;SDS011;3055;50.886;14.814;2023-02-01T08:26:16;5.47;;;3.07;;
6053;SDS011;3055;50.886;14.814;2023-02-01T08:28:46;8.50;;;3.43;;
6053;SDS011;3055;50.886;14.814;2023-02-01T08:31:14;5.97;;;3.37;;
6053;SDS011;3055;50.886;14.814;2023-02-01T08:33:44;8.37;;;3.43;;
6053;SDS011;3055;50.886;14.814;2023-02-01T08:36:15;10.77;;;3.67;;
6053;SDS011;3055;50.886;14.814;2023-02-01T08:38:42;8.33;;;5.07;;
6053;SDS011;3055;50.886;14.814;2023-02-01T08:41:11;7.37;;;3.87;;
6053;SDS011;3055;50.886;14.814;2023-02-01T08:43:40;7.27;;;3.50;;
6053;SDS011;3055;50.886;14.814;2023-02-01T08:46:08;5.70;;;3.00;;
6053;SDS011;3055;50.886;14.814;2023-02-01T08:48:36;9.93;;;4.03;;
6053;SDS011;3055;50.886;14.814;2023-02-01T08:51:04;7.53;;;3.63;;
6053;SDS011;3055;50.886;14.814;2023-02-01T08:53:32;5.17;;;3.17;;
6053;SDS011;3055;50.886;14.814;2023-02-01T08:56:01;7.80;;;3.00;;
6053;SDS011;3055;50.886;14.814;2023-02-01T08:58:29;4.93;;;3.00;;
6053;SDS011;3055;50.886;14.814;2023-02-01T09:00:56;6.30;;;3.27;;
6053;SDS011;3055;50.886;14.814;2023-02-01T09:03:23;7.13;;;2.87;;
6053;SDS011;3055;50.886;14.814;2023-02-01T09:05:50;4.57;;;2.87;;
6053;SDS011;3055;50.886;14.814;2023-02-01T09:08:17;4.93;;;2.80;;
6053;SDS011;3055;50.886;14.814;2023-02-01T09:10:45;7.90;;;3.20;;
6053;SDS011;3055;50.886;14.814;2023-02-01T09:13:12;7.93;;;3.00;;
6053;SDS011;3055;50.886;14.814;2023-02-01T09:15:40;7.00;;;2.83;;
6053;SDS011;3055;50.886;14.814;2023-02-01T09:18:07;6.07;;;2.97;;
6053;SDS011;3055;50.886;14.814;2023-02-01T09:20:36;6.23;;;2.53;;
6053;SDS011;3055;50.886;14.814;2023-02-01T09:23:03;5.90;;;3.23;;
6053;SDS011;3055;50.886;14.814;2023-02-01T09:25:32;6.80;;;3.20;;
6053;SDS011;3055;50.886;14.814;2023-02-01T09:27:59;6.93;;;2.90;;
6053;SDS011;3055;50.886;14.814;2023-02-01T09:30:26;5.43;;;2.70;;
6053;SDS011;3055;50.886;14.814;2023-02-01T09:32:55;6.63;;;3.17;;
6053;SDS011;3055;50.886;14.814;2023-02-01T09:35:22;7.63;;;2.90;;
6053;SDS011;3055;50.886;14.814;2023-02-01T09:37:49;4.57;;;2.70;;
6053;SDS011;3055;50.886;14.814;2023-02-01T09:40:16;5.30;;;3.07;;
6053;SDS011;3055;50.886;14.814;2023-02-01T09:42:50;5.10;;;2.90;;
6053;SDS011;3055;50.886;14.814;2023-02-01T09:45:29;6.63;;;3.00;;
6053;SDS011;3055;50.886;14.814;2023-02-01T09:48:13;5.47;;;3.03;;
6053;SDS011;3055;50.886;14.814;2023-02-01T09:50:43;6.20;;;3.27;;
6053;SDS011;3055;50.886;14.814;2023-02-01T09:53:23;7.63;;;3.67;;
6053;SDS011;3055;50.886;14.814;2023-02-01T09:55:54;4.70;;;2.73;;
6053;SDS011;3055;50.886;14.814;2023-02-01T09:58:27;4.57;;;2.93;;
6053;SDS011;3055;50.886;14.814;2023-02-01T10:00:59;7.03;;;3.30;;
6053;SDS011;3055;50.886;14.814;2023-02-01T10:03:30;5.73;;;3.30;;
6053;SDS011;3055;50.886;14.814;2023-02-01T10:06:12;6.40;;;3.03;;
6053;SDS011;3055;50.886;14.814;2023-02-01T10:08:56;6.80;;;3.57;;
6053;SDS011;3055;50.886;14.814;2023-02-01T10:11:42;4.33;;;2.97;;
6053;SDS011;3055;50.886;14.814;2023-02-01T10:14:29;8.47;;;3.47;;
6053;SDS011;3055;50.886;14.814;2023-02-01T10:17:22;7.73;;;3.27;;
6053;SDS011;3055;50.886;14.814;2023-02-01T10:20:01;6.83;;;3.80;;
6053;SDS011;3055;50.886;14.814;2023-02-01T10:22:37;6.43;;;2.93;;
6053;SDS011;3055;50.886;14.814;2023-02-01T10:25:08;8.13;;;3.07;;
6053;SDS011;3055;50.886;14.814;2023-02-01T10:27:44;4.40;;;3.00;;
6053;SDS011;3055;50.886;14.814;2023-02-01T10:30:16;4.63;;;3.10;;
6053;SDS011;3055;50.886;14.814;2023-02-01T10:32:46;4.67;;;3.00;;
6053;SDS011;3055;50.886;14.814;2023-02-01T10:35:18;6.60;;;2.97;;
6053;SDS011;3055;50.886;14.814;2023-02-01T10:37:50;2.87;;;2.13;;
6053;SDS011;3055;50.886;14.814;2023-02-01T10:40:18;4.77;;;2.50;;
6053;SDS011;3055;50.886;14.814;2023-02-01T10:42:47;6.33;;;2.93;;
6053;SDS011;3055;50.886;14.814;2023-02-01T10:45:16;7.53;;;3.33;;
6053;SDS011;3055;50.886;14.814;2023-02-01T10:47:47;5.73;;;3.10;;
6053;SDS011;3055;50.886;14.814;2023-02-01T10:50:19;7.03;;;3.03;;
6053;SDS011;3055;50.886;14.814;2023-02-01T10:52:57;6.77;;;3.10;;
6053;SDS011;3055;50.886;14.814;2023-02-01T10:55:32;4.43;;;2.30;;
6053;SDS011;3055;50.886;14.814;2023-02-01T10:58:03;2.63;;;2.37;;
6053;SDS011;3055;50.886;14.814;2023-02-01T11:00:36;3.00;;;2.17;;
6053;SDS011;3055;50.886;14.814;2023-02-01T11:03:32;2.07;;;1.87;;
6053;SDS011;3055;50.886;14.814;2023-02-01T11:06:03;2.40;;;1.87;;
6053;SDS011;3055;50.886;14.814;2023-02-01T11:08:42;2.23;;;1.73;;
6053;SDS011;3055;50.886;14.814;2023-02-01T11:11:11;3.30;;;1.70;;
6053;SDS011;3055;50.886;14.814;2023-02-01T11:13:39;1.70;;;1.60;;
6053;SDS011;3055;50.886;14.814;2023-02-01T11:16:09;2.53;;;1.73;;
6053;SDS011;3055;50.886;14.814;2023-02-01T11:18:39;2.80;;;2.00;;
6053;SDS011;3055;50.886;14.814;2023-02-01T11:21:08;2.00;;;1.87;;
6053;SDS011;3055;50.886;14.814;2023-02-01T11:23:39;2.97;;;1.87;;
6053;SDS011;3055;50.886;14.814;2023-02-01T11:26:10;2.83;;;2.03;;
6053;SDS011;3055;50.886;14.814;2023-02-01T11:28:40;2.17;;;2.00;;
6053;SDS011;3055;50.886;14.814;2023-02-01T11:31:18;3.17;;;2.10;;
6053;SDS011;3055;50.886;14.814;2023-02-01T11:33:48;2.80;;;2.10;;
6053;SDS011;3055;50.886;14.814;2023-02-01T11:36:21;3.53;;;2.10;;
6053;SDS011;3055;50.886;14.814;2023-02-01T11:38:52;2.00;;;1.90;;
6053;SDS011;3055;50.886;14.814;2023-02-01T11:41:34;2.60;;;2.40;;
6053;SDS011;3055;50.886;14.814;2023-02-01T11:44:15;2.57;;;2.10;;
6053;SDS011;3055;50.886;14.814;2023-02-01T11:46:46;2.80;;;2.60;;
6053;SDS011;3055;50.886;14.814;2023-02-01T11:49:14;5.60;;;2.80;;
6053;SDS011;3055;50.886;14.814;2023-02-01T11:51:51;7.07;;;2.93;;
6053;SDS011;3055;50.886;14.814;2023-02-01T11:54:35;5.73;;;2.93;;
6053;SDS011;3055;50.886;14.814;2023-02-01T11:57:25;7.13;;;2.60;;
6053;SDS011;3055;50.886;14.814;2023-02-01T12:00:04;6.27;;;2.70;;
6053;SDS011;3055;50.886;14.814;2023-02-01T12:03:02;6.33;;;2.60;;
6053;SDS011;3055;50.886;14.814;2023-02-01T12:05:47;5.77;;;3.00;;
6053;SDS011;3055;50.886;14.814;2023-02-01T12:08:25;6.83;;;2.97;;
6053;SDS011;3055;50.886;14.814;2023-02-01T12:11:12;4.60;;;2.50;;
6053;SDS011;3055;50.886;14.814;2023-02-01T12:13:52;9.70;;;3.57;;
6053;SDS011;3055;50.886;14.814;2023-02-01T12:16:29;6.93;;;3.00;;
6053;SDS011;3055;50.886;14.814;2023-02-01T12:19:11;7.27;;;3.20;;
6053;SDS011;3055;50.886;14.814;2023-02-01T12:21:52;5.70;;;3.33;;
6053;SDS011;3055;50.886;14.814;2023-02-01T12:24:40;7.00;;;3.03;;
6053;SDS011;3055;50.886;14.814;2023-02-01T12:27:31;8.33;;;3.60;;
6053;SDS011;3055;50.886;14.814;2023-02-01T12:33:17;6.67;;;3.10;;
6053;SDS011;3055;50.886;14.814;2023-02-01T12:35:53;6.50;;;2.90;;
6053;SDS011;3055;50.886;14.814;2023-02-01T12:38:32;7.50;;;3.20;;
6053;SDS011;3055;50.886;14.814;2023-02-01T12:41:20;8.67;;;2.80;;
6053;SDS011;3055;50.886;14.814;2023-02-01T12:43:56;5.03;;;2.33;;
6053;SDS011;3055;50.886;14.814;2023-02-01T12:46:26;3.63;;;2.93;;
6053;SDS011;3055;50.886;14.814;2023-02-01T12:49:00;5.63;;;2.93;;
6053;SDS011;3055;50.886;14.814;2023-02-01T12:51:33;4.77;;;2.87;;
6053;SDS011;3055;50.886;14.814;2023-02-01T12:54:03;7.77;;;3.33;;
6053;SDS011;3055;50.886;14.814;2023-02-01T12:56:38;8.10;;;3.73;;
6053;SDS011;3055;50.886;14.814;2023-02-01T12:59:13;5.87;;;3.67;;
6053;SDS011;3055;50.886;14.814;2023-02-01T13:01:49;9.33;;;3.73;;
6053;SDS011;3055;50.886;14.814;2023-02-01T13:04:25;8.40;;;3.30;;
6053;SDS011;3055;50.886;14.814;2023-02-01T13:07:00;6.07;;;3.27;;
6053;SDS011;3055;50.886;14.814;2023-02-01T13:09:34;9.03;;;3.80;;
6053;SDS011;3055;50.886;14.814;2023-02-01T13:12:09;7.93;;;3.67;;
6053;SDS011;3055;50.886;14.814;2023-02-01T13:14:43;4.57;;;3.37;;
6053;SDS011;3055;50.886;14.814;2023-02-01T13:17:16;4.77;;;3.33;;
6053;SDS011;3055;50.886;14.814;2023-02-01T13:19:49;12.37;;;5.60;;
6053;SDS011;3055;50.886;14.814;2023-02-01T13:22:20;8.00;;;4.60;;
6053;SDS011;3055;50.886;14.814;2023-02-01T13:24:50;8.77;;;4.13;;
6053;SDS011;3055;50.886;14.814;2023-02-01T13:27:22;8.70;;;3.50;;
6053;SDS011;3055;50.886;14.814;2023-02-01T13:29:56;5.63;;;3.60;;
6053;SDS011;3055;50.886;14.814;2023-02-01T13:32:33;4.70;;;3.60;;
6053;SDS011;3055;50.886;14.814;2023-02-01T13:35:29;5.33;;;2.90;;
6053;SDS011;3055;50.886;14.814;2023-02-01T13:38:27;3.93;;;3.30;;
6053;SDS011;3055;50.886;14.814;2023-02-01T13:41:19;6.33;;;3.00;;
6053;SDS011;3055;50.886;14.814;2023-02-01T13:43:57;5.77;;;2.87;;
6053;SDS011;3055;50.886;14.814;2023-02-01T13:46:27;6.77;;;3.00;;
6053;SDS011;3055;50.886;14.814;2023-02-01T13:48:55;7.47;;;3.37;;
6053;SDS011;3055;50.886;14.814;2023-02-01T13:51:33;5.90;;;3.40;;
6053;SDS011;3055;50.886;14.814;2023-02-01T13:54:03;7.47;;;3.53;;
6053;SDS011;3055;50.886;14.814;2023-02-01T13:56:39;4.87;;;3.33;;
6053;SDS011;3055;50.886;14.814;2023-02-01T14:08:37;6.90;;;3.60;;
6053;SDS011;3055;50.886;14.814;2023-02-01T14:23:25;11.20;;;4.17;;
6053;SDS011;3055;50.886;14.814;2023-02-01T14:28:46;7.43;;;3.47;;
6053;SDS011;3055;50.886;14.814;2023-02-01T14:34:28;10.03;;;3.73;;
6053;SDS011;3055;50.886;14.814;2023-02-01T14:37:01;13.13;;;3.20;;
6053;SDS011;3055;50.886;14.814;2023-02-01T14:39:33;8.93;;;3.23;;
6053;SDS011;3055;50.886;14.814;2023-02-01T14:42:17;7.60;;;3.10;;
6053;SDS011;3055;50.886;14.814;2023-02-01T14:44:51;8.13;;;3.43;;
6053;SDS011;3055;50.886;14.814;2023-02-01T14:47:29;8.73;;;3.90;;
6053;SDS011;3055;50.886;14.814;2023-02-01T14:50:04;5.97;;;3.40;;
6053;SDS011;3055;50.886;14.814;2023-02-01T14:52:49;9.57;;;3.97;;
6053;SDS011;3055;50.886;14.814;2023-02-01T14:55:25;5.57;;;3.27;;
6053;SDS011;3055;50.886;14.814;2023-02-01T14:57:57;4.73;;;2.87;;
6053;SDS011;3055;50.886;14.814;2023-02-01T15:00:26;5.73;;;3.10;;
6053;SDS011;3055;50.886;14.814;2023-02-01T15:05:45;7.47;;;3.27;;
6053;SDS011;3055;50.886;14.814;2023-02-01T15:08:13;12.47;;;3.60;;
6053;SDS011;3055;50.886;14.814;2023-02-01T15:10:44;6.53;;;3.60;;
6053;SDS011;3055;50.886;14.814;2023-02-01T15:13:20;8.70;;;3.10;;
6053;SDS011;3055;50.886;14.814;2023-02-01T15:18:32;8.70;;;3.67;;
6053;SDS011;3055;50.886;14.814;2023-02-01T15:21:01;4.10;;;3.37;;
6053;SDS011;3055;50.886;14.814;2023-02-01T15:23:30;5.67;;;3.00;;
6053;SDS011;3055;50.886;14.814;2023-02-01T15:25:58;11.30;;;3.60;;
6053;SDS011;3055;50.886;14.814;2023-02-01T15:28:25;5.93;;;3.50;;
6053;SDS011;3055;50.886;14.814;2023-02-01T15:30:57;6.87;;;3.30;;
6053;SDS011;3055;50.886;14.814;2023-02-01T15:33:25;7.23;;;3.20;;
6053;SDS011;3055;50.886;14.814;2023-02-01T15:35:54;5.97;;;3.20;;
6053;SDS011;3055;50.886;14.814;2023-02-01T15:38:37;8.27;;;3.27;;
6053;SDS011;3055;50.886;14.814;2023-02-01T15:41:07;6.63;;;3.60;;
6053;SDS011;3055;50.886;14.814;2023-02-01T15:43:40;6.27;;;2.80;;
6053;SDS011;3055;50.886;14.814;2023-02-01T15:46:10;5.53;;;2.93;;
6053;SDS011;3055;50.886;14.814;2023-02-01T15:48:41;6.63;;;3.47;;
6053;SDS011;3055;50.886;14.814;2023-02-01T15:51:15;7.87;;;3.40;;
6053;SDS011;3055;50.886;14.814;2023-02-01T15:53:49;5.40;;;3.03;;
6053;SDS011;3055;50.886;14.814;2023-02-01T15:56:22;4.33;;;3.00;;
6053;SDS011;3055;50.886;14.814;2023-02-01T15:58:51;5.00;;;2.93;;
6053;SDS011;3055;50.886;14.814;2023-02-01T16:01:22;6.80;;;3.37;;
6053;SDS011;3055;50.886;14.814;2023-02-01T16:04:00;5.10;;;2.70;;
6053;SDS011;3055;50.886;14.814;2023-02-01T16:06:30;6.73;;;2.87;;
6053;SDS011;3055;50.886;14.814;2023-02-01T16:09:09;7.40;;;3.37;;
6053;SDS011;3055;50.886;14.814;2023-02-01T16:11:41;6.30;;;3.30;;
6053;SDS011;3055;50.886;14.814;2023-02-01T16:14:14;7.10;;;3.60;;